Latest Weather Observations for Cooma Airport

IDN60801

Issued at 9:42 pm EDT Monday 17 December 2018 (issued every 10 minutes, with the page automatically refreshed every 10 minutes)

About weather observations | Map of weather stations | Latest weather observations for NSW | Other Formats
Station Details ID: 070217 Name: COOMA AIRPORT AWS Lat: -36.29 Lon: 148.97 Height: 930.0 m
Data from the previous 72 hours. | See also: Recent months at Cooma Airport
Date/Time
EDT
Temp
°C
App
Temp
°C
Dew
Point
°C
Rel
Hum
%
Delta-T
°C
Wind Press
QNH
hPa
Press
MSL
hPa
Rain since
9am
mm
Dir  Spd
km/h
Gust
km/h
Spd
kts
Gust
kts
17/09:30pm 15.6 14.3 13.8 89 1.1 NE 13 15 7 8 1016.1 1012.7 0.0
17/09:00pm 16.3 15.1 14.0 86 1.4 NE 13 17 7 9 1015.6 1012.2 0.0
17/08:30pm 17.3 15.8 14.2 82 1.9 ENE 15 19 8 10 1015.0 1011.6 0.0
17/08:00pm 18.2 15.9 14.1 77 2.5 NE 19 24 10 13 1014.5 1011.1 0.0
17/07:30pm 19.4 16.9 14.2 72 3.1 ENE 20 24 11 13 1013.8 1010.4 0.0
17/07:00pm 20.2 18.0 14.3 69 3.6 ENE 19 24 10 13 1013.2 1009.7 0.0
17/06:30pm 20.9 18.5 14.3 66 4.0 ENE 20 24 11 13 1012.8 1009.4 0.0
17/06:00pm 22.0 20.4 13.9 60 4.9 E 15 20 8 11 1012.3 1008.8 0.0
17/05:30pm 24.3 20.9 9.1 38 8.6 SW 17 22 9 12 1011.8 1008.4 0.0
17/05:00pm 24.6 20.7 8.5 36 9.0 SW 19 28 10 15 1011.7 1008.3 0.0
17/04:30pm 24.2 21.4 8.6 37 8.7 SSE 13 20 7 11 1011.7 1008.3 0.0
17/04:00pm 24.5 21.3 8.5 36 9.0 SW 15 22 8 12 1011.7 1008.3 0.0
17/03:30pm 24.9 21.3 8.4 35 9.2 WSW 17 22 9 12 1011.7 1008.3 0.0
17/03:00pm 24.3 21.7 7.9 35 9.1 WNW 11 17 6 9 1011.6 1008.2 0.0
17/02:30pm 24.6 22.0 7.7 34 9.3 W 11 22 6 12 1011.6 1008.2 0.0
17/02:00pm 25.1 22.7 8.6 35 9.3 W 11 19 6 10 1011.7 1008.3 0.0
17/01:30pm 23.8 20.7 7.4 35 9.0 WNW 13 24 7 13 1011.6 1008.2 0.0
17/01:00pm 24.5 21.9 9.3 38 8.6 WNW 13 20 7 11 1011.7 1008.3 0.0
17/12:30pm 23.8 20.8 7.8 36 8.8 SW 13 22 7 12 1011.8 1008.4 0.0
17/12:00pm 23.4 19.9 7.1 35 8.9 W 15 28 8 15 1011.8 1008.4 0.0
17/11:30am 23.6 20.4 9.9 42 7.8 WSW 17 30 9 16 1012.1 1008.6 0.0
17/11:00am 22.4 18.7 9.6 44 7.2 WNW 19 26 10 14 1012.1 1008.6 0.0
17/10:30am 21.0 19.6 10.8 52 5.8 SW 9 17 5 9 1012.3 1008.8 0.0
17/10:00am 20.5 19.5 10.9 54 5.5 N 7 13 4 7 1012.4 1009.0 0.0
17/09:30am 19.3 17.3 10.3 56 5.1 ENE 11 13 6 7 1012.5 1009.1 0.0
17/09:00am 19.0 17.3 9.8 55 5.1 NE 9 15 5 8 1012.7 1009.3 0.0
17/08:30am 18.0 16.9 9.9 59 4.5 NNE 6 13 3 7 1012.6 1009.2 0.0
17/08:00am 16.7 15.0 9.9 64 3.8 NE 9 15 5 8 1012.6 1009.2 0.0
17/07:30am 15.3 13.3 10.1 71 2.9 NE 11 15 6 8 1012.3 1008.8 0.0
17/07:00am 14.7 14.1 10.3 75 2.4 NE 4 9 2 5 1012.0 1008.5 0.0
17/06:30am 11.4 10.1 9.1 86 1.2 NNE 6 7 3 4 1011.6 1008.2 0.0
17/06:00am 9.5 7.3 7.8 89 0.9 N 9 11 5 6 1011.4 1007.9 0.0
17/05:30am 10.7 8.9 7.8 82 1.5 N 7 11 4 6 1011.4 1007.9 0.0
17/05:00am 10.5 9.0 8.4 87 1.1 ENE 6 9 3 5 1011.1 1007.6 0.0
17/04:30am 11.1 9.5 8.8 86 1.2 N 7 9 4 5 1010.6 1007.2 0.0
17/04:00am 11.4 11.1 8.6 83 1.5 CALM 0 0 0 0 1010.7 1007.3 0.0
17/03:30am 10.8 10.7 9.6 92 0.6 CALM 0 0 0 0 1011.0 1007.5 0.0
17/03:00am 10.3 9.9 8.4 88 1.0 CALM 0 0 0 0 1011.1 1007.6 0.0
17/02:30am 10.1 9.3 8.2 88 1.0 S 2 6 1 3 1011.0 1007.5 0.0
17/02:00am 9.8 7.5 7.6 86 1.1 N 9 11 5 6 1011.1 1007.6 0.0
17/01:30am 13.1 11.3 8.0 71 2.7 NW 7 11 4 6 1011.2 1007.7 0.0
17/01:00am 11.7 11.1 7.2 74 2.3 CALM 0 0 0 0 1011.4 1007.9 0.0
17/12:30am 13.8 11.2 7.6 66 3.2 NNW 11 15 6 8 1011.5 1008.1 0.0
17/12:00am 12.9 11.6 7.6 70 2.7 NW 4 9 2 5 1011.5 1008.1 0.0
 
Date/Time
EDT
Temp
°C
App
Temp
°C
Dew
Point
°C
Rel
Hum
%
Delta-T
°C
Wind Press
QNH
hPa
Press
MSL
hPa
Rain since
9am
mm
Dir  Spd
km/h
Gust
km/h
Spd
kts
Gust
kts
16/11:30pm 14.4 12.1 7.5 63 3.6 NW 9 13 5 7 1011.5 1008.1 0.0
16/11:00pm 14.0 11.3 7.5 65 3.4 WNW 11 15 6 8 1011.5 1008.1 0.0
16/10:30pm 13.8 11.5 7.3 65 3.3 W 9 13 5 7 1011.4 1007.9 0.0
16/10:00pm 14.9 12.5 7.0 59 4.1 NW 9 13 5 7 1011.0 1007.5 0.0
16/09:30pm 14.2 12.1 6.6 60 3.9 NNW 7 11 4 6 1010.9 1007.4 0.0
16/09:00pm 16.7 14.5 6.2 50 5.4 NW 7 13 4 7 1010.5 1007.1 0.0
16/08:30pm 17.0 13.7 6.2 49 5.6 WNW 13 17 7 9 1010.4 1006.9 0.0
16/08:00pm 18.1 13.9 5.7 44 6.4 WNW 17 20 9 11 1010.1 1006.6 0.0
16/07:30pm 19.3 14.7 6.4 43 6.8 WNW 20 32 11 17 1009.9 1006.4 0.0
16/07:00pm 20.2 15.8 7.6 44 6.8 NW 20 30 11 16 1009.5 1006.1 0.0
16/06:30pm 20.5 15.8 7.8 44 6.9 NW 22 33 12 18 1009.0 1005.5 0.0
16/06:00pm 20.9 15.2 6.8 40 7.5 NW 26 43 14 23 1008.7 1005.2 0.0
16/05:30pm 21.4 15.8 8.7 44 7.0 NW 28 44 15 24 1008.4 1004.9 0.0
16/05:03pm 21.1 15.3 8.0 43 7.1 NW 28 46 15 25 1008.4 1004.9 0.0
16/05:00pm 20.8 15.3 7.4 42 7.2 NW 26 41 14 22 1008.6 1005.1 0.0
16/04:30pm 20.8 15.1 8.4 45 6.8 NW 28 43 15 23 1008.7 1005.2 0.0
16/04:00pm 19.8 15.7 8.8 49 6.1 NW 20 37 11 20 1009.0 1005.5 0.0
16/03:30pm 19.7 14.9 9.0 50 5.9 NW 24 41 13 22 1009.3 1005.8 0.0
16/03:00pm 19.5 15.2 9.4 52 5.6 WNW 22 33 12 18 1009.3 1005.8 0.0
16/02:32pm 20.1 13.8 8.8 48 6.2 NNW 32 50 17 27 1009.3 1005.8 0.0
16/02:30pm 20.2 13.7 8.8 48 6.3 NNW 33 50 18 27 1009.2 1005.7 0.0
16/02:17pm 19.3 13.7 8.6 50 5.8 NW 28 48 15 26 1009.1 1005.6 0.0
16/02:00pm 18.7 13.9 8.7 52 5.5 NW 24 39 13 21 1009.3 1005.8 0.0
16/01:30pm 18.8 14.2 9.6 55 5.1 NW 24 39 13 21 1009.2 1005.7 0.0
16/01:10pm 19.7 14.1 8.7 49 6.0 NW 28 46 15 25 1009.4 1005.9 0.0
16/01:00pm 19.5 14.3 8.8 50 5.9 NW 26 39 14 21 1009.3 1005.8 0.0
16/12:30pm 20.0 15.7 8.0 46 6.5 NNW 20 30 11 16 1009.5 1006.1 0.0
16/12:00pm 20.4 14.4 7.1 42 7.1 NNW 28 41 15 22 1009.4 1005.9 0.0
16/11:33am 22.3 16.0 7.3 38 8.1 NNW 30 50 16 27 1009.4 1005.9 0.0
16/11:30am 21.9 15.4 6.6 37 8.2 NNW 30 46 16 25 1009.4 1005.9 0.0
16/11:00am 20.7 13.8 6.6 40 7.5 NNW 32 44 17 24 1009.5 1006.1 0.0
16/10:30am 21.1 14.5 7.7 42 7.3 NNW 32 44 17 24 1009.5 1006.1 0.0
16/10:00am 19.8 14.3 7.5 45 6.6 NNW 26 39 14 21 1009.8 1006.3 0.0
16/09:30am 20.8 15.2 8.8 46 6.6 N 28 41 15 22 1009.8 1006.3 0.0
16/09:19am 19.6 14.2 8.0 47 6.3 NNE 26 46 14 25 1009.3 1005.8 0.0
16/09:00am 19.9 17.4 13.4 66 3.9 ENE 19 24 10 13 1009.1 1005.6 0.0
16/08:30am 17.5 14.6 13.0 75 2.6 NE 20 24 11 13 1009.4 1005.9 0.0
16/08:00am 16.2 13.8 12.7 80 2.0 NE 17 20 9 11 1009.4 1005.9 0.0
16/07:30am 14.9 12.3 11.9 82 1.7 NE 17 20 9 11 1009.2 1005.7 0.0
16/07:00am 13.1 12.3 11.7 91 0.8 NNE 7 11 4 6 1009.1 1005.6 0.0
16/06:30am 12.3 10.6 11.2 93 0.6 NNE 11 13 6 7 1008.8 1005.3 0.0
16/06:00am 11.1 9.2 10.6 97 0.3 ENE 11 13 6 7 1008.4 1004.9 0.0
16/05:30am 10.9 9.7 9.7 92 0.6 ENE 6 7 3 4 1008.3 1004.8 0.0
16/05:00am 10.6 9.2 9.4 92 0.6 NNE 7 11 4 6 1008.0 1004.5 0.0
16/04:30am 12.2 9.5 11.6 96 0.3 NE 17 19 9 10 1007.6 1004.0 0.0
16/04:09am 12.4 9.9 12.2 99 0.1 ENE 17 17 9 9 1007.7 1004.2 0.0
16/04:08am 12.4 9.9 12.2 99 0.1 ENE 17 17 9 9 1007.7 1004.2 0.0
16/04:00am 12.5 10.4 12.5 100 0.0 NE 15 17 8 9 1007.8 1004.3 0.0
16/03:48am 12.9 11.3 12.9 100 0.0 NE 13 15 7 8 1008.0 1004.5 0.0
16/03:44am 12.8 11.2 12.8 100 0.0 NE 13 15 7 8 1008.0 1004.5 0.0
16/03:30am 11.8 10.6 11.6 99 0.1 NNE 9 11 5 6 1008.0 1004.5 0.0
16/03:00am 12.6 12.1 12.1 97 0.3 N 6 6 3 3 1008.1 1004.6 0.0
16/02:30am 13.3 12.9 13.1 99 0.1 N 7 9 4 5 1008.3 1004.8 0.0
16/02:00am 14.1 13.7 14.1 100 0.0 N 9 11 5 6 1008.6 1005.1 0.0
16/01:30am 13.8 13.6 13.6 99 0.1 N 7 9 4 5 1008.7 1005.2 0.0
16/01:00am 14.0 13.9 14.0 100 0.0 N 7 9 4 5 1008.9 1005.4 0.0
16/12:30am 14.0 13.9 13.8 99 0.1 N 7 9 4 5 1008.9 1005.4 0.0
16/12:00am 14.3 14.2 14.0 98 0.2 N 7 7 4 4 1009.0 1005.5 0.0
 
Date/Time
EDT
Temp
°C
App
Temp
°C
Dew
Point
°C
Rel
Hum
%
Delta-T
°C
Wind Press
QNH
hPa
Press
MSL
hPa
Rain since
9am
mm
Dir  Spd
km/h
Gust
km/h
Spd
kts
Gust
kts
15/11:30pm 15.5 16.1 15.3 99 0.1 N 6 7 3 4 1009.1 1005.6 0.0
15/11:00pm 15.6 15.6 15.3 98 0.2 N 9 11 5 6 1009.1 1005.6 0.0
15/10:30pm 16.2 15.4 15.1 93 0.7 E 13 15 7 8 1009.1 1005.6 0.0
15/10:00pm 16.0 15.6 11.0 72 2.8 N 4 6 2 3 1009.0 1005.5 0.0
15/09:30pm 16.5 14.9 8.2 58 4.4 E 6 9 3 5 1008.8 1005.3 0.0
15/09:00pm 18.6 15.6 5.8 43 6.6 NW 11 15 6 8 1008.7 1005.2 0.0
15/08:30pm 19.7 15.1 3.8 35 7.9 NNW 17 22 9 12 1008.4 1004.9 0.0
15/08:00pm 20.3 15.5 4.4 35 8.1 NNW 19 30 10 16 1008.7 1005.2 0.0
15/07:30pm 21.0 15.4 3.7 32 8.7 NNW 22 32 12 17 1007.7 1004.2 0.0
15/07:00pm 21.6 15.2 5.1 34 8.6 NNW 28 39 15 21 1006.1 1002.6 0.0
15/06:30pm 22.3 17.7 6.5 36 8.4 NW 20 30 11 16 1005.9 1002.4 0.0
15/06:00pm 22.6 17.4 5.5 33 9.0 NNW 22 32 12 17 1006.7 1003.2 0.0
15/05:30pm 23.7 18.3 6.5 33 9.3 NNW 24 33 13 18 1006.4 1002.8 0.0
15/05:00pm 23.6 16.3 4.5 29 9.9 N 32 44 17 24 1006.4 1002.8 0.0
15/04:45pm 24.0 17.4 7.6 35 9.0 N 32 50 17 27 1006.7 1003.2 0.0
15/04:30pm 23.8 17.1 7.4 35 9.0 N 32 46 17 25 1007.0 1003.5 0.0
15/04:00pm 23.2 15.3 7.7 37 8.5 N 39 59 21 32 1006.8 1003.3 0.0
15/03:40pm 23.2 15.7 8.1 38 8.3 N 37 56 20 30 1007.0 1003.5 0.0
15/03:30pm 23.4 15.9 7.9 37 8.5 N 37 54 20 29 1007.1 1003.6 0.0
15/03:00pm 23.2 16.4 9.2 41 7.9 N 35 56 19 30 1007.7 1004.2 0.0
15/02:42pm 23.5 17.0 8.8 39 8.2 N 33 56 18 30 1007.8 1004.3 0.0
15/02:30pm 23.4 17.7 9.8 42 7.7 N 30 43 16 23 1008.0 1004.5 0.0
15/02:00pm 22.6 16.3 7.6 38 8.2 N 30 39 16 21 1008.2 1004.7 0.0
15/01:30pm 23.2 15.9 7.3 36 8.7 N 35 50 19 27 1008.4 1004.9 0.0
15/01:11pm 22.9 15.2 7.1 36 8.6 N 37 57 20 31 1008.3 1004.8 0.0
15/01:00pm 22.1 15.0 7.9 40 7.8 NNE 35 52 19 28 1008.6 1005.1 0.0
15/12:30pm 22.2 15.1 8.0 40 7.8 N 35 54 19 29 1008.9 1005.4 0.0
15/12:00pm 22.2 15.7 10.4 47 6.8 N 35 56 19 30 1009.0 1005.5 0.0
15/11:58am 21.7 15.3 9.3 45 6.9 NNE 33 56 18 30 1009.0 1005.5 0.0
15/11:30am 21.5 16.5 12.1 55 5.5 NNE 30 39 16 21 1009.3 1005.8 0.0
15/11:00am 20.4 15.6 11.6 57 5.1 N 28 41 15 22 1009.3 1005.8 0.0
15/10:30am 20.8 16.6 14.7 68 3.7 NNE 30 35 16 19 1009.2 1005.7 0.0
15/10:00am 19.7 18.1 16.5 82 2.0 NNE 20 26 11 14 1009.3 1005.8 0.0
15/09:38am 18.0 16.1 15.8 87 1.4 NNE 20 28 11 15 1009.4 1005.9 0.0
15/09:30am 17.8 15.9 15.8 88 1.2 NNE 20 26 11 14 1009.3 1005.8 0.0
15/09:00am 17.6 16.6 16.5 93 0.7 NE 17 22 9 12 1009.2 1005.7 22.4
15/08:46am 17.8 18.4 17.6 99 0.1 NE 11 15 6 8 1008.9 1005.4 22.4
15/08:40am 16.8 16.9 16.6 99 0.1 NE 11 17 6 9 1008.9 1005.4 22.4
15/08:30am 16.4 16.0 16.2 99 0.1 NE 13 17 7 9 1009.0 1005.5 22.4
15/08:00am 15.8 17.3 15.8 100 0.0 SSW 2 6 1 3 1009.2 1005.7 22.2
15/07:30am 14.8 14.3 14.8 100 0.0 SSW 11 15 6 8 1008.9 1005.4 22.2
15/07:15am 14.7 14.5 14.7 100 0.0 SSW 9 11 5 6 1008.8 1005.3 22.2
15/07:00am 14.4 13.7 14.4 100 0.0 WSW 11 13 6 7 1008.7 1005.2 22.2
15/06:48am 14.1 13.7 14.1 100 0.0 WSW 9 13 5 7 1008.9 1005.4 22.2
15/06:30am 14.2 13.8 14.2 100 0.0 SW 9 9 5 5 1008.7 1005.2 22.2
15/06:00am 14.3 14.0 14.3 100 0.0 S 9 9 5 5 1008.4 1004.9 22.0
15/05:30am 14.1 14.1 14.1 100 0.0 SW 7 9 4 5 1008.2 1004.7 22.0
15/05:00am 14.1 13.7 14.1 100 0.0 WSW 9 15 5 8 1008.2 1004.7 22.0
15/04:55am 14.0 13.2 14.0 100 0.0 W 11 15 6 8 1008.2 1004.7 22.0
15/04:30am 14.2 14.2 14.2 100 0.0 WSW 7 11 4 6 1008.0 1004.5 20.6
15/04:01am 14.4 13.7 14.4 100 0.0 SW 11 13 6 7 1007.4 1003.8 16.2
15/04:00am 14.4 13.7 14.4 100 0.0 SSW 11 13 6 7 1007.4 1003.8 15.2
15/03:47am 14.5 13.9 14.5 100 0.0 S 11 13 6 7 1007.4 1003.8 15.0
15/03:30am 14.4 14.5 14.4 100 0.0 SW 7 9 4 5 1007.6 1004.0 15.0
15/03:29am 14.4 14.5 14.4 100 0.0 SW 7 9 4 5 1007.6 1004.0 15.0
15/03:17am 14.4 15.1 14.4 100 0.0 SSW 4 13 2 7 1007.9 1004.4 15.0
15/03:07am 14.3 15.7 14.3 100 0.0 CALM 0 0 0 0 1008.0 1004.5 13.6
15/03:00am 14.3 15.6 14.1 99 0.1 CALM 0 6 0 3 1007.9 1004.4 13.0
15/02:46am 14.2 14.7 14.0 99 0.1 WNW 4 7 2 4 1008.1 1004.6 12.8
15/02:30am 14.2 13.8 14.2 100 0.0 W 9 15 5 8 1008.1 1004.6 12.8
15/02:00am 14.2 15.2 14.2 100 0.0 N 2 11 1 6 1008.3 1004.8 12.6
15/01:30am 14.1 14.6 14.1 100 0.0 N 4 7 2 4 1008.8 1005.3 12.0
15/01:00am 14.1 13.6 13.9 99 0.1 NE 9 13 5 7 1008.4 1004.9 12.0
15/12:30am 14.3 13.1 14.1 99 0.1 E 13 19 7 10 1009.0 1005.5 12.0
15/12:00am 14.5 14.5 14.3 99 0.1 NNE 7 11 4 6 1009.2 1005.7 11.8
 
Date/Time
EDT
Temp
°C
App
Temp
°C
Dew
Point
°C
Rel
Hum
%
Delta-T
°C
Wind Press
QNH
hPa
Press
MSL
hPa
Rain since
9am
mm
Dir  Spd
km/h
Gust
km/h
Spd
kts
Gust
kts
14/11:30pm 14.5 13.8 14.3 99 0.1 ENE 11 19 6 10 1009.0 1005.5 11.8
14/11:19pm 14.6 13.9 14.4 99 0.1 ENE 11 17 6 9 1009.4 1005.9 11.8
14/11:00pm 14.7 14.4 14.5 99 0.1 NNE 9 13 5 7 1009.4 1005.9 11.2
14/10:51pm 14.8 14.5 14.5 98 0.2 N 9 11 5 6 1009.3 1005.8 10.6
14/10:30pm 15.0 13.9 14.2 95 0.5 N 13 19 7 10 1009.4 1005.9 10.0
14/10:00pm 15.2 12.9 14.1 93 0.7 NNE 19 26 10 14 1009.8 1006.3 10.0

Other Formats:

Comma delimited format used in spreadsheet applications
http://www.bom.gov.au/fwo/IDN60801/IDN60801.94921.axf

JavaScript Object Notation format (JSON) in row-major order
http://www.bom.gov.au/fwo/IDN60801/IDN60801.94921.json